Terminal Aerodrome Forecast
Issued by NWS

Home | Current Version | Previous Version | Text Only | Print | Product List | Glossary On
Versions: 1 2 3 4 5 6 7 8 9 10 11 12 13 14 15 16 17 18 19
000
FTUS44 KHGX 260520
TAFUTS
TAF
KUTS 260520Z 2606/2706 34007G17KT P6SM BKN015 BKN120
     FM260630 33009KT P6SM SCT110
     FM262200 34004KT P6SM FEW250=

USA.gov is the U.S. government's official web portal to all federal, state and local government web resources and services.